sensor_id;sensor_type;location;lat;lon;timestamp;temperature;humidity
4602;DHT22;2313;48.552;9.370;2023-09-08T00:02:07;16.80;99.90
4602;DHT22;2313;48.552;9.370;2023-09-08T00:04:33;16.80;99.90
4602;DHT22;2313;48.552;9.370;2023-09-08T00:06:59;16.80;99.90
4602;DHT22;2313;48.552;9.370;2023-09-08T00:09:24;16.80;99.90
4602;DHT22;2313;48.552;9.370;2023-09-08T00:11:50;16.80;99.90
4602;DHT22;2313;48.552;9.370;2023-09-08T00:14:17;16.80;99.90
4602;DHT22;2313;48.552;9.370;2023-09-08T00:16:43;16.70;99.90
4602;DHT22;2313;48.552;9.370;2023-09-08T00:19:12;16.80;99.90
4602;DHT22;2313;48.552;9.370;2023-09-08T00:21:37;16.70;99.90
4602;DHT22;2313;48.552;9.370;2023-09-08T00:24:04;16.70;99.90
4602;DHT22;2313;48.552;9.370;2023-09-08T00:26:30;16.60;99.90
4602;DHT22;2313;48.552;9.370;2023-09-08T00:28:56;16.60;99.90
4602;DHT22;2313;48.552;9.370;2023-09-08T00:31:21;16.60;99.90
4602;DHT22;2313;48.552;9.370;2023-09-08T00:33:47;16.60;99.90
4602;DHT22;2313;48.552;9.370;2023-09-08T00:36:12;16.60;99.90
4602;DHT22;2313;48.552;9.370;2023-09-08T00:38:38;16.60;99.90
4602;DHT22;2313;48.552;9.370;2023-09-08T00:41:07;16.50;99.90
4602;DHT22;2313;48.552;9.370;2023-09-08T00:43:33;16.50;99.90
4602;DHT22;2313;48.552;9.370;2023-09-08T00:45:58;16.50;99.90
4602;DHT22;2313;48.552;9.370;2023-09-08T00:48:26;16.50;99.90
4602;DHT22;2313;48.552;9.370;2023-09-08T00:50:51;16.50;99.90
4602;DHT22;2313;48.552;9.370;2023-09-08T00:53:17;16.40;99.90
4602;DHT22;2313;48.552;9.370;2023-09-08T00:55:43;16.30;99.90
4602;DHT22;2313;48.552;9.370;2023-09-08T00:58:11;16.40;99.90
4602;DHT22;2313;48.552;9.370;2023-09-08T01:00:37;16.40;99.90
4602;DHT22;2313;48.552;9.370;2023-09-08T01:03:03;16.40;99.90
4602;DHT22;2313;48.552;9.370;2023-09-08T01:05:29;16.50;99.90
4602;DHT22;2313;48.552;9.370;2023-09-08T01:07:55;16.50;99.90
4602;DHT22;2313;48.552;9.370;2023-09-08T01:10:21;16.50;99.90
4602;DHT22;2313;48.552;9.370;2023-09-08T01:12:46;16.50;99.90
4602;DHT22;2313;48.552;9.370;2023-09-08T01:15:12;16.30;99.90
4602;DHT22;2313;48.552;9.370;2023-09-08T01:17:38;16.30;99.90
4602;DHT22;2313;48.552;9.370;2023-09-08T01:20:18;16.30;99.90
4602;DHT22;2313;48.552;9.370;2023-09-08T01:23:03;16.40;99.90
4602;DHT22;2313;48.552;9.370;2023-09-08T01:25:41;16.40;99.90
4602;DHT22;2313;48.552;9.370;2023-09-08T01:28:11;16.40;99.90
4602;DHT22;2313;48.552;9.370;2023-09-08T01:30:38;16.30;99.90
4602;DHT22;2313;48.552;9.370;2023-09-08T01:33:04;16.30;99.90
4602;DHT22;2313;48.552;9.370;2023-09-08T01:35:30;16.30;99.90
4602;DHT22;2313;48.552;9.370;2023-09-08T01:37:57;16.30;99.90
4602;DHT22;2313;48.552;9.370;2023-09-08T01:40:22;16.30;99.90
4602;DHT22;2313;48.552;9.370;2023-09-08T01:42:48;16.20;99.90
4602;DHT22;2313;48.552;9.370;2023-09-08T01:45:14;16.30;99.90
4602;DHT22;2313;48.552;9.370;2023-09-08T01:47:40;16.30;99.90
4602;DHT22;2313;48.552;9.370;2023-09-08T01:50:06;16.30;99.90
4602;DHT22;2313;48.552;9.370;2023-09-08T01:52:31;16.20;99.90
4602;DHT22;2313;48.552;9.370;2023-09-08T01:54:57;16.10;99.90
4602;DHT22;2313;48.552;9.370;2023-09-08T01:57:23;16.10;99.90
4602;DHT22;2313;48.552;9.370;2023-09-08T01:59:48;16.00;99.90
4602;DHT22;2313;48.552;9.370;2023-09-08T02:02:14;16.00;99.90
4602;DHT22;2313;48.552;9.370;2023-09-08T02:04:40;15.90;99.90
4602;DHT22;2313;48.552;9.370;2023-09-08T02:07:05;15.90;99.90
4602;DHT22;2313;48.552;9.370;2023-09-08T02:09:35;15.80;99.90
4602;DHT22;2313;48.552;9.370;2023-09-08T02:12:02;15.80;99.90
4602;DHT22;2313;48.552;9.370;2023-09-08T02:14:28;15.80;99.90
4602;DHT22;2313;48.552;9.370;2023-09-08T02:16:54;15.70;99.90
4602;DHT22;2313;48.552;9.370;2023-09-08T02:19:20;15.70;99.90
4602;DHT22;2313;48.552;9.370;2023-09-08T02:21:46;15.60;99.90
4602;DHT22;2313;48.552;9.370;2023-09-08T02:24:11;15.60;99.90
4602;DHT22;2313;48.552;9.370;2023-09-08T02:26:38;15.60;99.90
4602;DHT22;2313;48.552;9.370;2023-09-08T02:29:04;15.60;99.90
4602;DHT22;2313;48.552;9.370;2023-09-08T02:31:30;15.40;99.90
4602;DHT22;2313;48.552;9.370;2023-09-08T02:33:56;15.40;99.90
4602;DHT22;2313;48.552;9.370;2023-09-08T02:36:21;15.40;99.90
4602;DHT22;2313;48.552;9.370;2023-09-08T02:38:54;15.40;99.90
4602;DHT22;2313;48.552;9.370;2023-09-08T02:41:20;15.40;99.90
4602;DHT22;2313;48.552;9.370;2023-09-08T02:43:46;15.40;99.90
4602;DHT22;2313;48.552;9.370;2023-09-08T02:46:12;15.40;99.90
4602;DHT22;2313;48.552;9.370;2023-09-08T02:48:38;15.40;99.90
4602;DHT22;2313;48.552;9.370;2023-09-08T02:51:04;15.30;99.90
4602;DHT22;2313;48.552;9.370;2023-09-08T02:53:30;15.30;99.90
4602;DHT22;2313;48.552;9.370;2023-09-08T02:55:56;15.30;99.90
4602;DHT22;2313;48.552;9.370;2023-09-08T02:58:22;15.20;99.90
4602;DHT22;2313;48.552;9.370;2023-09-08T03:00:48;15.20;99.90
4602;DHT22;2313;48.552;9.370;2023-09-08T03:03:14;15.10;99.90
4602;DHT22;2313;48.552;9.370;2023-09-08T03:05:39;15.10;99.90
4602;DHT22;2313;48.552;9.370;2023-09-08T03:08:05;15.10;99.90
4602;DHT22;2313;48.552;9.370;2023-09-08T03:10:33;15.00;99.90
4602;DHT22;2313;48.552;9.370;2023-09-08T03:13:03;15.10;99.90
4602;DHT22;2313;48.552;9.370;2023-09-08T03:15:28;15.10;99.90
4602;DHT22;2313;48.552;9.370;2023-09-08T03:17:55;15.00;99.90
4602;DHT22;2313;48.552;9.370;2023-09-08T03:20:20;15.00;99.90
4602;DHT22;2313;48.552;9.370;2023-09-08T03:22:46;15.00;99.90
4602;DHT22;2313;48.552;9.370;2023-09-08T03:25:14;14.90;99.90
4602;DHT22;2313;48.552;9.370;2023-09-08T03:27:39;14.70;99.90
4602;DHT22;2313;48.552;9.370;2023-09-08T03:30:05;14.60;99.90
4602;DHT22;2313;48.552;9.370;2023-09-08T03:32:31;14.60;99.90
4602;DHT22;2313;48.552;9.370;2023-09-08T03:34:57;14.60;99.90
4602;DHT22;2313;48.552;9.370;2023-09-08T03:37:22;14.60;99.90
4602;DHT22;2313;48.552;9.370;2023-09-08T03:39:48;14.60;99.90
4602;DHT22;2313;48.552;9.370;2023-09-08T03:42:14;14.60;99.90
4602;DHT22;2313;48.552;9.370;2023-09-08T03:44:39;14.60;99.90
4602;DHT22;2313;48.552;9.370;2023-09-08T03:47:14;14.60;99.90
4602;DHT22;2313;48.552;9.370;2023-09-08T03:49:39;14.60;99.90
4602;DHT22;2313;48.552;9.370;2023-09-08T03:52:05;14.70;99.90
4602;DHT22;2313;48.552;9.370;2023-09-08T03:54:31;14.70;99.90
4602;DHT22;2313;48.552;9.370;2023-09-08T03:56:56;14.70;99.90
4602;DHT22;2313;48.552;9.370;2023-09-08T03:59:22;14.60;99.90
4602;DHT22;2313;48.552;9.370;2023-09-08T04:01:47;14.60;99.90
4602;DHT22;2313;48.552;9.370;2023-09-08T04:04:13;14.60;99.90
4602;DHT22;2313;48.552;9.370;2023-09-08T04:06:39;14.70;99.90
4602;DHT22;2313;48.552;9.370;2023-09-08T04:09:04;14.70;99.90
4602;DHT22;2313;48.552;9.370;2023-09-08T04:11:30;14.70;99.90
4602;DHT22;2313;48.552;9.370;2023-09-08T04:13:55;14.60;99.90
4602;DHT22;2313;48.552;9.370;2023-09-08T04:16:21;14.70;99.90
4602;DHT22;2313;48.552;9.370;2023-09-08T04:18:46;14.70;99.90
4602;DHT22;2313;48.552;9.370;2023-09-08T04:21:12;14.60;99.90
4602;DHT22;2313;48.552;9.370;2023-09-08T04:23:38;14.60;99.90
4602;DHT22;2313;48.552;9.370;2023-09-08T04:26:03;14.60;99.90
4602;DHT22;2313;48.552;9.370;2023-09-08T04:28:29;14.70;99.90
4602;DHT22;2313;48.552;9.370;2023-09-08T04:30:55;14.70;99.90
4602;DHT22;2313;48.552;9.370;2023-09-08T04:33:21;14.60;99.90
4602;DHT22;2313;48.552;9.370;2023-09-08T04:35:46;14.50;99.90
4602;DHT22;2313;48.552;9.370;2023-09-08T04:38:12;14.50;99.90
4602;DHT22;2313;48.552;9.370;2023-09-08T04:40:40;14.50;99.90
4602;DHT22;2313;48.552;9.370;2023-09-08T04:43:07;14.50;99.90
4602;DHT22;2313;48.552;9.370;2023-09-08T04:45:33;14.50;99.90
4602;DHT22;2313;48.552;9.370;2023-09-08T04:47:58;14.50;99.90
4602;DHT22;2313;48.552;9.370;2023-09-08T04:50:24;14.60;99.90
4602;DHT22;2313;48.552;9.370;2023-09-08T04:52:49;14.50;99.90
4602;DHT22;2313;48.552;9.370;2023-09-08T04:55:15;14.50;99.90
4602;DHT22;2313;48.552;9.370;2023-09-08T04:57:40;14.50;99.90
4602;DHT22;2313;48.552;9.370;2023-09-08T05:00:06;14.50;99.90
4602;DHT22;2313;48.552;9.370;2023-09-08T05:02:32;14.40;99.90
4602;DHT22;2313;48.552;9.370;2023-09-08T05:04:58;14.40;99.90
4602;DHT22;2313;48.552;9.370;2023-09-08T05:07:25;14.40;99.90
4602;DHT22;2313;48.552;9.370;2023-09-08T05:09:50;14.40;99.90
4602;DHT22;2313;48.552;9.370;2023-09-08T05:12:16;14.40;99.90
4602;DHT22;2313;48.552;9.370;2023-09-08T05:14:42;14.50;99.90
4602;DHT22;2313;48.552;9.370;2023-09-08T05:17:07;14.50;99.90
4602;DHT22;2313;48.552;9.370;2023-09-08T05:19:33;14.40;99.90
4602;DHT22;2313;48.552;9.370;2023-09-08T05:21:58;14.40;99.90
4602;DHT22;2313;48.552;9.370;2023-09-08T05:24:24;14.50;99.90
4602;DHT22;2313;48.552;9.370;2023-09-08T05:26:52;14.50;99.90
4602;DHT22;2313;48.552;9.370;2023-09-08T05:29:18;14.50;99.90
4602;DHT22;2313;48.552;9.370;2023-09-08T05:31:43;14.60;99.90
4602;DHT22;2313;48.552;9.370;2023-09-08T05:34:09;14.60;99.90
4602;DHT22;2313;48.552;9.370;2023-09-08T05:36:35;14.60;99.90
4602;DHT22;2313;48.552;9.370;2023-09-08T05:39:03;14.60;99.90
4602;DHT22;2313;48.552;9.370;2023-09-08T05:41:29;14.70;99.90
4602;DHT22;2313;48.552;9.370;2023-09-08T05:43:54;14.70;99.90
4602;DHT22;2313;48.552;9.370;2023-09-08T05:46:20;14.90;99.90
4602;DHT22;2313;48.552;9.370;2023-09-08T05:48:45;15.00;99.90
4602;DHT22;2313;48.552;9.370;2023-09-08T05:51:13;15.10;99.90
4602;DHT22;2313;48.552;9.370;2023-09-08T05:53:39;15.30;99.90
4602;DHT22;2313;48.552;9.370;2023-09-08T05:56:06;15.30;99.90
4602;DHT22;2313;48.552;9.370;2023-09-08T05:58:32;15.40;99.90
4602;DHT22;2313;48.552;9.370;2023-09-08T06:01:00;15.50;99.90
4602;DHT22;2313;48.552;9.370;2023-09-08T06:03:26;15.60;99.90
4602;DHT22;2313;48.552;9.370;2023-09-08T06:05:52;15.80;99.90
4602;DHT22;2313;48.552;9.370;2023-09-08T06:08:17;15.90;99.90
4602;DHT22;2313;48.552;9.370;2023-09-08T06:10:43;16.10;99.90
4602;DHT22;2313;48.552;9.370;2023-09-08T06:13:09;16.30;99.90
4602;DHT22;2313;48.552;9.370;2023-09-08T06:15:34;16.60;99.90
4602;DHT22;2313;48.552;9.370;2023-09-08T06:18:00;17.10;99.90
4602;DHT22;2313;48.552;9.370;2023-09-08T06:20:25;17.50;99.90
4602;DHT22;2313;48.552;9.370;2023-09-08T06:22:52;17.90;99.90
4602;DHT22;2313;48.552;9.370;2023-09-08T06:25:17;18.10;99.90
4602;DHT22;2313;48.552;9.370;2023-09-08T06:27:44;18.50;99.90
4602;DHT22;2313;48.552;9.370;2023-09-08T06:30:10;18.60;99.90
4602;DHT22;2313;48.552;9.370;2023-09-08T06:32:36;18.50;99.90
4602;DHT22;2313;48.552;9.370;2023-09-08T06:35:01;18.50;99.90
4602;DHT22;2313;48.552;9.370;2023-09-08T06:37:27;18.40;99.90
4602;DHT22;2313;48.552;9.370;2023-09-08T06:39:54;18.20;99.90
4602;DHT22;2313;48.552;9.370;2023-09-08T06:42:20;18.10;99.90
4602;DHT22;2313;48.552;9.370;2023-09-08T06:44:46;17.80;99.90
4602;DHT22;2313;48.552;9.370;2023-09-08T06:47:11;17.70;99.90
4602;DHT22;2313;48.552;9.370;2023-09-08T06:49:37;17.90;99.90
4602;DHT22;2313;48.552;9.370;2023-09-08T06:52:02;17.90;99.90
4602;DHT22;2313;48.552;9.370;2023-09-08T06:54:28;17.90;99.90
4602;DHT22;2313;48.552;9.370;2023-09-08T06:56:54;17.80;99.90
4602;DHT22;2313;48.552;9.370;2023-09-08T06:59:19;17.70;99.90
4602;DHT22;2313;48.552;9.370;2023-09-08T07:01:45;17.80;99.90
4602;DHT22;2313;48.552;9.370;2023-09-08T07:04:10;17.80;99.90
4602;DHT22;2313;48.552;9.370;2023-09-08T07:06:36;17.90;99.90
4602;DHT22;2313;48.552;9.370;2023-09-08T07:09:04;17.90;99.90
4602;DHT22;2313;48.552;9.370;2023-09-08T07:11:29;17.90;99.90
4602;DHT22;2313;48.552;9.370;2023-09-08T07:13:56;18.00;99.90
4602;DHT22;2313;48.552;9.370;2023-09-08T07:16:22;18.00;99.90
4602;DHT22;2313;48.552;9.370;2023-09-08T07:18:47;18.10;99.90
4602;DHT22;2313;48.552;9.370;2023-09-08T07:21:13;18.10;99.90
4602;DHT22;2313;48.552;9.370;2023-09-08T07:23:38;18.20;99.90
4602;DHT22;2313;48.552;9.370;2023-09-08T07:26:04;18.30;99.90
4602;DHT22;2313;48.552;9.370;2023-09-08T07:28:30;18.30;99.90
4602;DHT22;2313;48.552;9.370;2023-09-08T07:31:01;18.40;99.90
4602;DHT22;2313;48.552;9.370;2023-09-08T07:33:28;18.50;99.90
4602;DHT22;2313;48.552;9.370;2023-09-08T07:35:53;18.50;99.90
4602;DHT22;2313;48.552;9.370;2023-09-08T07:38:19;18.70;99.90
4602;DHT22;2313;48.552;9.370;2023-09-08T07:40:45;18.80;99.90
4602;DHT22;2313;48.552;9.370;2023-09-08T07:43:10;18.90;99.90
4602;DHT22;2313;48.552;9.370;2023-09-08T07:45:36;19.00;99.90
4602;DHT22;2313;48.552;9.370;2023-09-08T07:48:01;19.10;99.90
4602;DHT22;2313;48.552;9.370;2023-09-08T07:50:28;19.20;99.90
4602;DHT22;2313;48.552;9.370;2023-09-08T07:52:55;19.20;99.90
4602;DHT22;2313;48.552;9.370;2023-09-08T07:55:22;19.30;99.90
4602;DHT22;2313;48.552;9.370;2023-09-08T07:57:49;19.50;99.90
4602;DHT22;2313;48.552;9.370;2023-09-08T08:00:15;19.40;99.90
4602;DHT22;2313;48.552;9.370;2023-09-08T08:02:49;19.60;99.90
4602;DHT22;2313;48.552;9.370;2023-09-08T08:05:15;19.70;99.90
4602;DHT22;2313;48.552;9.370;2023-09-08T08:07:41;19.90;99.90
4602;DHT22;2313;48.552;9.370;2023-09-08T08:10:08;20.00;99.90
4602;DHT22;2313;48.552;9.370;2023-09-08T08:12:34;20.10;99.90
4602;DHT22;2313;48.552;9.370;2023-09-08T08:14:59;20.20;99.90
4602;DHT22;2313;48.552;9.370;2023-09-08T08:17:25;20.30;99.90
4602;DHT22;2313;48.552;9.370;2023-09-08T08:19:53;20.50;99.90
4602;DHT22;2313;48.552;9.370;2023-09-08T08:22:19;20.60;99.90
4602;DHT22;2313;48.552;9.370;2023-09-08T08:24:45;20.70;99.90
4602;DHT22;2313;48.552;9.370;2023-09-08T08:27:10;20.90;99.90
4602;DHT22;2313;48.552;9.370;2023-09-08T08:29:36;21.00;99.90
4602;DHT22;2313;48.552;9.370;2023-09-08T08:32:02;21.20;99.90
4602;DHT22;2313;48.552;9.370;2023-09-08T08:34:28;21.30;99.90
4602;DHT22;2313;48.552;9.370;2023-09-08T08:36:53;21.40;99.90
4602;DHT22;2313;48.552;9.370;2023-09-08T08:39:19;21.50;99.90
4602;DHT22;2313;48.552;9.370;2023-09-08T08:41:45;21.70;99.90
4602;DHT22;2313;48.552;9.370;2023-09-08T08:44:10;21.80;99.90
4602;DHT22;2313;48.552;9.370;2023-09-08T08:46:37;21.90;99.90
4602;DHT22;2313;48.552;9.370;2023-09-08T08:49:03;22.10;99.90
4602;DHT22;2313;48.552;9.370;2023-09-08T08:51:32;22.20;99.90
4602;DHT22;2313;48.552;9.370;2023-09-08T08:54:01;22.40;99.90
4602;DHT22;2313;48.552;9.370;2023-09-08T08:56:32;22.60;99.90
4602;DHT22;2313;48.552;9.370;2023-09-08T08:59:01;22.60;99.90
4602;DHT22;2313;48.552;9.370;2023-09-08T09:01:28;22.80;99.90
4602;DHT22;2313;48.552;9.370;2023-09-08T09:03:55;23.00;99.90
4602;DHT22;2313;48.552;9.370;2023-09-08T09:06:21;23.30;99.90
4602;DHT22;2313;48.552;9.370;2023-09-08T09:08:47;23.40;99.90
4602;DHT22;2313;48.552;9.370;2023-09-08T09:11:13;23.70;99.90
4602;DHT22;2313;48.552;9.370;2023-09-08T09:13:38;24.10;99.90
4602;DHT22;2313;48.552;9.370;2023-09-08T09:16:04;24.40;99.90
4602;DHT22;2313;48.552;9.370;2023-09-08T09:18:33;24.70;99.90
4602;DHT22;2313;48.552;9.370;2023-09-08T09:21:01;25.00;99.90
4602;DHT22;2313;48.552;9.370;2023-09-08T09:23:31;25.30;99.90
4602;DHT22;2313;48.552;9.370;2023-09-08T09:25:57;25.40;99.90
4602;DHT22;2313;48.552;9.370;2023-09-08T09:28:23;25.70;99.90
4602;DHT22;2313;48.552;9.370;2023-09-08T09:30:50;26.10;99.90
4602;DHT22;2313;48.552;9.370;2023-09-08T09:33:17;26.50;99.90
4602;DHT22;2313;48.552;9.370;2023-09-08T09:35:56;27.00;99.90
4602;DHT22;2313;48.552;9.370;2023-09-08T09:38:26;27.80;99.90
4602;DHT22;2313;48.552;9.370;2023-09-08T09:40:52;28.10;99.90
4602;DHT22;2313;48.552;9.370;2023-09-08T09:43:21;28.70;97.70
4602;DHT22;2313;48.552;9.370;2023-09-08T09:45:48;28.90;96.10
4602;DHT22;2313;48.552;9.370;2023-09-08T09:48:14;29.10;94.60
4602;DHT22;2313;48.552;9.370;2023-09-08T09:50:41;29.40;95.90
4602;DHT22;2313;48.552;9.370;2023-09-08T09:53:18;29.20;99.40
4602;DHT22;2313;48.552;9.370;2023-09-08T09:55:45;29.60;93.70
4602;DHT22;2313;48.552;9.370;2023-09-08T09:58:11;30.10;92.70
4602;DHT22;2313;48.552;9.370;2023-09-08T10:00:38;30.30;93.30
4602;DHT22;2313;48.552;9.370;2023-09-08T10:03:06;30.60;94.30
4602;DHT22;2313;48.552;9.370;2023-09-08T10:05:32;30.70;92.00
4602;DHT22;2313;48.552;9.370;2023-09-08T10:07:58;30.50;91.20
4602;DHT22;2313;48.552;9.370;2023-09-08T10:10:26;30.70;91.70
4602;DHT22;2313;48.552;9.370;2023-09-08T10:12:54;30.90;91.90
4602;DHT22;2313;48.552;9.370;2023-09-08T10:15:24;31.10;91.10
4602;DHT22;2313;48.552;9.370;2023-09-08T10:17:55;31.30;89.60
4602;DHT22;2313;48.552;9.370;2023-09-08T10:20:23;31.30;90.80
4602;DHT22;2313;48.552;9.370;2023-09-08T10:23:06;31.60;96.30
4602;DHT22;2313;48.552;9.370;2023-09-08T10:25:36;31.60;98.20
4602;DHT22;2313;48.552;9.370;2023-09-08T10:28:03;31.70;94.90
4602;DHT22;2313;48.552;9.370;2023-09-08T10:30:30;31.80;96.70
4602;DHT22;2313;48.552;9.370;2023-09-08T10:32:57;31.70;88.80
4602;DHT22;2313;48.552;9.370;2023-09-08T10:35:23;32.00;92.10
4602;DHT22;2313;48.552;9.370;2023-09-08T10:37:49;32.10;91.40
4602;DHT22;2313;48.552;9.370;2023-09-08T10:40:25;32.30;92.70
4602;DHT22;2313;48.552;9.370;2023-09-08T10:43:09;32.30;93.30
4602;DHT22;2313;48.552;9.370;2023-09-08T10:45:35;32.40;92.60
4602;DHT22;2313;48.552;9.370;2023-09-08T10:48:01;32.40;92.20
4602;DHT22;2313;48.552;9.370;2023-09-08T10:50:30;32.60;90.60
4602;DHT22;2313;48.552;9.370;2023-09-08T10:53:16;32.50;93.80
4602;DHT22;2313;48.552;9.370;2023-09-08T10:55:46;32.50;94.60
4602;DHT22;2313;48.552;9.370;2023-09-08T10:58:32;32.60;99.90
4602;DHT22;2313;48.552;9.370;2023-09-08T11:01:00;32.60;99.90
4602;DHT22;2313;48.552;9.370;2023-09-08T11:06:08;32.90;96.70
4602;DHT22;2313;48.552;9.370;2023-09-08T11:08:37;32.90;98.40
4602;DHT22;2313;48.552;9.370;2023-09-08T11:11:03;32.90;99.90
4602;DHT22;2313;48.552;9.370;2023-09-08T11:13:29;32.80;97.40
4602;DHT22;2313;48.552;9.370;2023-09-08T11:15:55;32.80;97.90
4602;DHT22;2313;48.552;9.370;2023-09-08T11:18:27;32.80;99.90
4602;DHT22;2313;48.552;9.370;2023-09-08T11:20:53;32.50;99.90
4602;DHT22;2313;48.552;9.370;2023-09-08T11:23:20;32.40;87.80
4602;DHT22;2313;48.552;9.370;2023-09-08T11:25:46;32.50;87.00
4602;DHT22;2313;48.552;9.370;2023-09-08T11:28:12;32.00;84.30
4602;DHT22;2313;48.552;9.370;2023-09-08T11:30:39;31.60;88.60
4602;DHT22;2313;48.552;9.370;2023-09-08T11:33:21;31.20;83.40
4602;DHT22;2313;48.552;9.370;2023-09-08T11:35:54;30.80;83.50
4602;DHT22;2313;48.552;9.370;2023-09-08T11:38:27;30.50;86.20
4602;DHT22;2313;48.552;9.370;2023-09-08T11:40:53;30.30;86.10
4602;DHT22;2313;48.552;9.370;2023-09-08T11:43:20;29.90;85.90
4602;DHT22;2313;48.552;9.370;2023-09-08T11:45:46;29.70;86.20
4602;DHT22;2313;48.552;9.370;2023-09-08T11:48:14;29.70;87.70
4602;DHT22;2313;48.552;9.370;2023-09-08T11:50:43;29.60;88.20
4602;DHT22;2313;48.552;9.370;2023-09-08T11:53:09;29.50;89.50
4602;DHT22;2313;48.552;9.370;2023-09-08T11:55:35;29.40;90.10
4602;DHT22;2313;48.552;9.370;2023-09-08T11:58:02;29.30;90.70
4602;DHT22;2313;48.552;9.370;2023-09-08T12:00:29;29.50;89.00
4602;DHT22;2313;48.552;9.370;2023-09-08T12:02:55;29.60;91.20
4602;DHT22;2313;48.552;9.370;2023-09-08T12:05:26;29.50;90.50
4602;DHT22;2313;48.552;9.370;2023-09-08T12:07:57;29.50;90.20
4602;DHT22;2313;48.552;9.370;2023-09-08T12:10:24;29.60;90.80
4602;DHT22;2313;48.552;9.370;2023-09-08T12:12:52;29.60;90.20
4602;DHT22;2313;48.552;9.370;2023-09-08T12:15:38;29.70;90.50
4602;DHT22;2313;48.552;9.370;2023-09-08T12:18:08;29.60;90.60
4602;DHT22;2313;48.552;9.370;2023-09-08T12:20:36;29.60;90.30
4602;DHT22;2313;48.552;9.370;2023-09-08T12:23:04;29.50;88.90
4602;DHT22;2313;48.552;9.370;2023-09-08T12:25:30;29.50;88.60
4602;DHT22;2313;48.552;9.370;2023-09-08T12:27:59;29.50;88.50
4602;DHT22;2313;48.552;9.370;2023-09-08T12:30:26;29.50;89.60
4602;DHT22;2313;48.552;9.370;2023-09-08T12:32:58;29.60;90.10
4602;DHT22;2313;48.552;9.370;2023-09-08T12:35:25;29.60;90.10
4602;DHT22;2313;48.552;9.370;2023-09-08T12:38:01;29.60;90.30
4602;DHT22;2313;48.552;9.370;2023-09-08T12:40:28;29.60;90.10
4602;DHT22;2313;48.552;9.370;2023-09-08T12:42:54;29.60;90.20
4602;DHT22;2313;48.552;9.370;2023-09-08T12:45:21;29.60;90.00
4602;DHT22;2313;48.552;9.370;2023-09-08T12:47:48;29.50;88.90
4602;DHT22;2313;48.552;9.370;2023-09-08T12:50:13;29.50;88.80
4602;DHT22;2313;48.552;9.370;2023-09-08T12:52:39;29.50;89.30
4602;DHT22;2313;48.552;9.370;2023-09-08T12:55:06;29.60;90.20
4602;DHT22;2313;48.552;9.370;2023-09-08T12:57:32;29.60;90.70
4602;DHT22;2313;48.552;9.370;2023-09-08T12:59:58;29.60;90.30
4602;DHT22;2313;48.552;9.370;2023-09-08T13:02:23;29.70;90.90
4602;DHT22;2313;48.552;9.370;2023-09-08T13:04:49;29.60;89.70
4602;DHT22;2313;48.552;9.370;2023-09-08T13:07:16;29.60;90.30
4602;DHT22;2313;48.552;9.370;2023-09-08T13:09:41;29.50;90.00
4602;DHT22;2313;48.552;9.370;2023-09-08T13:12:07;29.50;89.30
4602;DHT22;2313;48.552;9.370;2023-09-08T13:14:34;29.50;89.40
4602;DHT22;2313;48.552;9.370;2023-09-08T13:17:00;29.50;89.60
4602;DHT22;2313;48.552;9.370;2023-09-08T13:19:26;29.50;90.00
4602;DHT22;2313;48.552;9.370;2023-09-08T13:21:52;29.50;90.20
4602;DHT22;2313;48.552;9.370;2023-09-08T13:24:17;29.50;90.70
4602;DHT22;2313;48.552;9.370;2023-09-08T13:26:44;29.50;90.00
4602;DHT22;2313;48.552;9.370;2023-09-08T13:29:10;29.50;90.10
4602;DHT22;2313;48.552;9.370;2023-09-08T13:31:35;29.50;90.40
4602;DHT22;2313;48.552;9.370;2023-09-08T13:34:01;29.50;90.60
4602;DHT22;2313;48.552;9.370;2023-09-08T13:36:26;29.50;90.70
4602;DHT22;2313;48.552;9.370;2023-09-08T13:38:52;29.50;90.40
4602;DHT22;2313;48.552;9.370;2023-09-08T13:41:17;29.50;90.70
4602;DHT22;2313;48.552;9.370;2023-09-08T13:43:43;29.50;91.20
4602;DHT22;2313;48.552;9.370;2023-09-08T13:46:09;29.40;91.00
4602;DHT22;2313;48.552;9.370;2023-09-08T13:48:34;29.40;90.70
4602;DHT22;2313;48.552;9.370;2023-09-08T13:51:03;29.50;91.30
4602;DHT22;2313;48.552;9.370;2023-09-08T13:53:29;29.50;90.90
4602;DHT22;2313;48.552;9.370;2023-09-08T13:55:58;29.50;91.10
4602;DHT22;2313;48.552;9.370;2023-09-08T13:58:24;29.50;91.40
4602;DHT22;2313;48.552;9.370;2023-09-08T14:00:50;29.50;91.40
4602;DHT22;2313;48.552;9.370;2023-09-08T14:03:17;29.50;91.10
4602;DHT22;2313;48.552;9.370;2023-09-08T14:05:44;29.50;91.50
4602;DHT22;2313;48.552;9.370;2023-09-08T14:08:09;29.50;91.50
4602;DHT22;2313;48.552;9.370;2023-09-08T14:10:35;29.40;91.40
4602;DHT22;2313;48.552;9.370;2023-09-08T14:13:01;29.40;91.40
4602;DHT22;2313;48.552;9.370;2023-09-08T14:15:26;29.30;90.70
4602;DHT22;2313;48.552;9.370;2023-09-08T14:17:52;29.20;91.10
4602;DHT22;2313;48.552;9.370;2023-09-08T14:20:18;29.10;90.00
4602;DHT22;2313;48.552;9.370;2023-09-08T14:22:44;29.20;88.00
4602;DHT22;2313;48.552;9.370;2023-09-08T14:25:10;29.20;87.80
4602;DHT22;2313;48.552;9.370;2023-09-08T14:27:36;29.10;87.60
4602;DHT22;2313;48.552;9.370;2023-09-08T14:30:03;29.00;89.70
4602;DHT22;2313;48.552;9.370;2023-09-08T14:32:29;29.00;87.00
4602;DHT22;2313;48.552;9.370;2023-09-08T14:34:55;29.00;89.80
4602;DHT22;2313;48.552;9.370;2023-09-08T14:37:21;29.00;88.20
4602;DHT22;2313;48.552;9.370;2023-09-08T14:39:48;29.00;89.20
4602;DHT22;2313;48.552;9.370;2023-09-08T14:42:13;29.10;88.90
4602;DHT22;2313;48.552;9.370;2023-09-08T14:44:40;29.00;88.20
4602;DHT22;2313;48.552;9.370;2023-09-08T14:47:06;29.00;91.30
4602;DHT22;2313;48.552;9.370;2023-09-08T14:49:32;29.00;91.60
4602;DHT22;2313;48.552;9.370;2023-09-08T14:51:58;29.00;90.20
4602;DHT22;2313;48.552;9.370;2023-09-08T14:54:23;29.00;90.00
4602;DHT22;2313;48.552;9.370;2023-09-08T14:56:49;28.90;90.00
4602;DHT22;2313;48.552;9.370;2023-09-08T14:59:15;28.90;90.60
4602;DHT22;2313;48.552;9.370;2023-09-08T15:01:41;28.80;87.30
4602;DHT22;2313;48.552;9.370;2023-09-08T15:04:08;28.80;88.00
4602;DHT22;2313;48.552;9.370;2023-09-08T15:06:34;28.80;90.60
4602;DHT22;2313;48.552;9.370;2023-09-08T15:09:00;28.80;89.90
4602;DHT22;2313;48.552;9.370;2023-09-08T15:11:25;28.70;88.70
4602;DHT22;2313;48.552;9.370;2023-09-08T15:13:51;28.70;88.30
4602;DHT22;2313;48.552;9.370;2023-09-08T15:16:17;28.70;87.90
4602;DHT22;2313;48.552;9.370;2023-09-08T15:18:43;28.60;89.60
4602;DHT22;2313;48.552;9.370;2023-09-08T15:21:08;28.60;96.90
4602;DHT22;2313;48.552;9.370;2023-09-08T15:23:34;28.50;89.10
4602;DHT22;2313;48.552;9.370;2023-09-08T15:26:00;28.50;88.60
4602;DHT22;2313;48.552;9.370;2023-09-08T15:28:26;28.40;88.60
4602;DHT22;2313;48.552;9.370;2023-09-08T15:30:53;28.40;88.30
4602;DHT22;2313;48.552;9.370;2023-09-08T15:33:19;28.40;88.10
4602;DHT22;2313;48.552;9.370;2023-09-08T15:35:51;28.40;87.90
4602;DHT22;2313;48.552;9.370;2023-09-08T15:38:17;28.40;88.30
4602;DHT22;2313;48.552;9.370;2023-09-08T15:43:31;28.30;88.80
4602;DHT22;2313;48.552;9.370;2023-09-08T15:45:57;28.20;88.20
4602;DHT22;2313;48.552;9.370;2023-09-08T15:48:22;28.20;89.20
4602;DHT22;2313;48.552;9.370;2023-09-08T15:50:48;28.20;92.10
4602;DHT22;2313;48.552;9.370;2023-09-08T15:53:13;28.10;90.20
4602;DHT22;2313;48.552;9.370;2023-09-08T15:55:39;28.00;91.00
4602;DHT22;2313;48.552;9.370;2023-09-08T15:58:04;28.00;90.80
4602;DHT22;2313;48.552;9.370;2023-09-08T16:00:30;27.90;88.20
4602;DHT22;2313;48.552;9.370;2023-09-08T16:02:59;27.90;88.60
4602;DHT22;2313;48.552;9.370;2023-09-08T16:05:25;27.80;88.00